sensor_id;sensor_type;location;lat;lon;timestamp;pressure;altitude;pressure_sealevel;temperature;humidity
10064;BME280;5071;52.360;13.134;2022-11-04T00:03:11;100038.88;;;6.65;95.08
10064;BME280;5071;52.360;13.134;2022-11-04T00:08:14;100038.81;;;6.68;95.71
10064;BME280;5071;52.360;13.134;2022-11-04T00:13:16;100037.97;;;6.66;95.56
10064;BME280;5071;52.360;13.134;2022-11-04T00:18:17;100027.47;;;6.59;95.32
10064;BME280;5071;52.360;13.134;2022-11-04T00:23:21;100025.78;;;6.51;95.93
10064;BME280;5071;52.360;13.134;2022-11-04T00:28:23;100021.47;;;6.36;95.36
10064;BME280;5071;52.360;13.134;2022-11-04T00:33:25;100025.94;;;6.28;96.48
10064;BME280;5071;52.360;13.134;2022-11-04T00:38:29;100025.16;;;6.12;96.13
10064;BME280;5071;52.360;13.134;2022-11-04T00:43:31;100019.97;;;6.01;96.02
10064;BME280;5071;52.360;13.134;2022-11-04T00:48:33;100012.97;;;5.84;96.63
10064;BME280;5071;52.360;13.134;2022-11-04T00:53:36;99998.03;;;5.85;97.44
10064;BME280;5071;52.360;13.134;2022-11-04T00:58:38;100004.19;;;5.87;97.81
10064;BME280;5071;52.360;13.134;2022-11-04T01:03:40;100008.56;;;5.90;97.99
10064;BME280;5071;52.360;13.134;2022-11-04T01:08:43;100005.03;;;6.00;98.95
10064;BME280;5071;52.360;13.134;2022-11-04T01:13:45;100003.19;;;6.11;99.18
10064;BME280;5071;52.360;13.134;2022-11-04T01:18:50;99985.63;;;6.13;99.36
10064;BME280;5071;52.360;13.134;2022-11-04T01:23:53;99996.09;;;6.21;99.89
10064;BME280;5071;52.360;13.134;2022-11-04T01:28:56;100011.06;;;6.20;99.90
10064;BME280;5071;52.360;13.134;2022-11-04T01:33:58;100004.97;;;6.11;99.32
10064;BME280;5071;52.360;13.134;2022-11-04T01:39:01;99989.97;;;6.17;99.76
10064;BME280;5071;52.360;13.134;2022-11-04T01:44:45;99988.19;;;6.22;99.67
10064;BME280;5071;52.360;13.134;2022-11-04T01:49:49;99990.75;;;6.32;99.38
10064;BME280;5071;52.360;13.134;2022-11-04T01:54:56;99983.66;;;6.41;99.59
10064;BME280;5071;52.360;13.134;2022-11-04T02:00:03;99972.25;;;6.38;99.33
10064;BME280;5071;52.360;13.134;2022-11-04T02:05:06;99976.59;;;6.45;99.79
10064;BME280;5071;52.360;13.134;2022-11-04T02:10:09;99966.97;;;6.41;99.33
10064;BME280;5071;52.360;13.134;2022-11-04T02:15:12;99965.25;;;6.37;99.27
10064;BME280;5071;52.360;13.134;2022-11-04T02:20:28;99957.31;;;6.40;99.69
10064;BME280;5071;52.360;13.134;2022-11-04T02:26:03;99945.91;;;6.38;99.43
10064;BME280;5071;52.360;13.134;2022-11-04T02:31:14;99938.91;;;6.34;99.71
10064;BME280;5071;52.360;13.134;2022-11-04T02:36:25;99927.38;;;6.47;100.00
10064;BME280;5071;52.360;13.134;2022-11-04T02:41:38;99921.06;;;6.67;100.00
10064;BME280;5071;52.360;13.134;2022-11-04T02:46:48;99938.63;;;6.68;100.00
10064;BME280;5071;52.360;13.134;2022-11-04T02:51:57;99933.34;;;6.69;100.00
10064;BME280;5071;52.360;13.134;2022-11-04T02:57:04;99918.34;;;6.76;100.00
10064;BME280;5071;52.360;13.134;2022-11-04T03:02:14;99911.13;;;6.92;100.00
10064;BME280;5071;52.360;13.134;2022-11-04T03:07:22;99915.38;;;7.04;100.00
10064;BME280;5071;52.360;13.134;2022-11-04T03:12:29;99937.31;;;7.09;100.00
10064;BME280;5071;52.360;13.134;2022-11-04T03:17:39;99954.97;;;7.04;100.00
10064;BME280;5071;52.360;13.134;2022-11-04T03:22:44;99959.38;;;7.01;100.00
10064;BME280;5071;52.360;13.134;2022-11-04T03:27:50;99960.28;;;7.00;100.00
10064;BME280;5071;52.360;13.134;2022-11-04T03:32:59;99965.56;;;6.99;100.00
10064;BME280;5071;52.360;13.134;2022-11-04T03:38:04;99970.78;;;7.07;100.00
10064;BME280;5071;52.360;13.134;2022-11-04T03:43:09;99976.03;;;7.10;100.00
10064;BME280;5071;52.360;13.134;2022-11-04T03:48:14;99960.22;;;7.05;100.00
10064;BME280;5071;52.360;13.134;2022-11-04T03:53:17;99970.78;;;7.07;100.00
10064;BME280;5071;52.360;13.134;2022-11-04T03:58:27;99978.69;;;7.07;100.00
10064;BME280;5071;52.360;13.134;2022-11-04T04:03:42;99973.38;;;7.10;100.00
10064;BME280;5071;52.360;13.134;2022-11-04T04:08:50;99971.59;;;7.12;100.00
10064;BME280;5071;52.360;13.134;2022-11-04T04:14:04;99963.69;;;7.13;100.00
10064;BME280;5071;52.360;13.134;2022-11-04T04:19:13;99953.06;;;7.18;100.00
10064;BME280;5071;52.360;13.134;2022-11-04T04:24:19;99957.28;;;7.31;100.00
10064;BME280;5071;52.360;13.134;2022-11-04T04:29:24;99959.09;;;7.26;100.00
10064;BME280;5071;52.360;13.134;2022-11-04T04:34:29;99959.16;;;7.23;100.00
10064;BME280;5071;52.360;13.134;2022-11-04T04:39:35;99963.53;;;7.26;100.00
10064;BME280;5071;52.360;13.134;2022-11-04T04:44:40;99958.22;;;7.27;100.00
10064;BME280;5071;52.360;13.134;2022-11-04T04:49:49;99968.78;;;7.27;100.00
10064;BME280;5071;52.360;13.134;2022-11-04T04:54:52;99972.31;;;7.26;100.00
10064;BME280;5071;52.360;13.134;2022-11-04T04:59:54;99969.66;;;7.29;100.00
10064;BME280;5071;52.360;13.134;2022-11-04T05:04:57;99967.84;;;7.34;100.00
10064;BME280;5071;52.360;13.134;2022-11-04T05:09:58;99978.41;;;7.34;100.00
10064;BME280;5071;52.360;13.134;2022-11-04T05:15:00;99978.41;;;7.34;100.00
10064;BME280;5071;52.360;13.134;2022-11-04T05:20:04;99976.59;;;7.39;100.00
10064;BME280;5071;52.360;13.134;2022-11-04T05:25:06;99988.88;;;7.39;100.00
10064;BME280;5071;52.360;13.134;2022-11-04T05:30:09;99991.50;;;7.40;100.00
10064;BME280;5071;52.360;13.134;2022-11-04T05:35:12;100000.25;;;7.46;100.00
10064;BME280;5071;52.360;13.134;2022-11-04T05:40:14;100009.88;;;7.53;100.00
10064;BME280;5071;52.360;13.134;2022-11-04T05:45:16;100004.59;;;7.53;100.00
10064;BME280;5071;52.360;13.134;2022-11-04T05:50:19;100000.94;;;7.60;100.00
10064;BME280;5071;52.360;13.134;2022-11-04T05:55:20;100016.66;;;7.72;100.00
10064;BME280;5071;52.360;13.134;2022-11-04T06:00:23;100023.63;;;7.81;100.00
10064;BME280;5071;52.360;13.134;2022-11-04T06:05:26;100032.41;;;7.80;100.00
10064;BME280;5071;52.360;13.134;2022-11-04T06:10:28;100043.91;;;7.79;100.00
10064;BME280;5071;52.360;13.134;2022-11-04T06:15:30;100037.66;;;7.85;100.00
10064;BME280;5071;52.360;13.134;2022-11-04T06:20:33;100053.34;;;7.97;100.00
10064;BME280;5071;52.360;13.134;2022-11-04T06:25:35;100062.13;;;7.99;100.00
10064;BME280;5071;52.360;13.134;2022-11-04T06:30:37;100072.66;;;8.02;100.00
10064;BME280;5071;52.360;13.134;2022-11-04T06:35:40;100078.72;;;8.09;100.00
10064;BME280;5071;52.360;13.134;2022-11-04T06:40:41;100091.88;;;8.16;100.00
10064;BME280;5071;52.360;13.134;2022-11-04T06:45:43;100085.69;;;8.17;100.00
10064;BME280;5071;52.360;13.134;2022-11-04T06:50:47;100097.06;;;8.24;100.00
10064;BME280;5071;52.360;13.134;2022-11-04T06:55:50;100096.94;;;8.32;100.00
10064;BME280;5071;52.360;13.134;2022-11-04T07:00:52;100109.06;;;8.48;100.00
10064;BME280;5071;52.360;13.134;2022-11-04T07:05:56;100095.56;;;8.68;100.00
10064;BME280;5071;52.360;13.134;2022-11-04T07:10:58;100084.56;;;8.94;100.00
10064;BME280;5071;52.360;13.134;2022-11-04T07:16:03;100083.28;;;9.20;100.00
10064;BME280;5071;52.360;13.134;2022-11-04T07:21:07;100091.91;;;9.31;100.00
10064;BME280;5071;52.360;13.134;2022-11-04T07:26:11;100082.91;;;9.40;100.00
10064;BME280;5071;52.360;13.134;2022-11-04T07:31:13;100076.72;;;9.40;100.00
10064;BME280;5071;52.360;13.134;2022-11-04T07:36:17;100085.47;;;9.45;100.00
10064;BME280;5071;52.360;13.134;2022-11-04T07:41:19;100080.81;;;9.59;100.00
10064;BME280;5071;52.360;13.134;2022-11-04T07:46:21;100075.25;;;9.71;100.00
10064;BME280;5071;52.360;13.134;2022-11-04T07:51:25;100072.53;;;9.76;100.00
10064;BME280;5071;52.360;13.134;2022-11-04T07:56:28;100073.22;;;9.86;100.00
10064;BME280;5071;52.360;13.134;2022-11-04T08:01:32;100058.94;;;9.93;100.00
10064;BME280;5071;52.360;13.134;2022-11-04T08:06:35;100060.53;;;10.00;100.00
10064;BME280;5071;52.360;13.134;2022-11-04T08:11:38;100054.97;;;10.12;100.00
10064;BME280;5071;52.360;13.134;2022-11-04T08:16:39;100071.66;;;10.18;100.00
10064;BME280;5071;52.360;13.134;2022-11-04T08:21:42;100098.03;;;10.25;100.00
10064;BME280;5071;52.360;13.134;2022-11-04T08:26:44;100105.97;;;10.25;100.00
10064;BME280;5071;52.360;13.134;2022-11-04T08:31:46;100113.75;;;10.36;100.00
10064;BME280;5071;52.360;13.134;2022-11-04T08:36:49;100118.13;;;10.37;100.00
10064;BME280;5071;52.360;13.134;2022-11-04T08:41:51;100109.56;;;10.65;100.00
10064;BME280;5071;52.360;13.134;2022-11-04T08:46:54;100112.91;;;10.73;100.00
10064;BME280;5071;52.360;13.134;2022-11-04T08:51:57;100110.66;;;10.94;100.00
10064;BME280;5071;52.360;13.134;2022-11-04T08:57:00;100110.69;;;10.92;100.00
10064;BME280;5071;52.360;13.134;2022-11-04T09:02:01;100114.97;;;10.98;100.00
10064;BME280;5071;52.360;13.134;2022-11-04T09:07:05;100111.69;;;10.86;100.00
10064;BME280;5071;52.360;13.134;2022-11-04T09:12:09;100113.47;;;10.87;100.00
10064;BME280;5071;52.360;13.134;2022-11-04T09:17:11;100105.97;;;11.03;99.33
10064;BME280;5071;52.360;13.134;2022-11-04T09:22:14;100106.03;;;11.02;99.08
10064;BME280;5071;52.360;13.134;2022-11-04T09:27:17;100098.16;;;10.99;97.34
10064;BME280;5071;52.360;13.134;2022-11-04T09:32:19;100089.22;;;11.01;96.98
10064;BME280;5071;52.360;13.134;2022-11-04T09:37:22;100087.47;;;11.02;96.86
10064;BME280;5071;52.360;13.134;2022-11-04T09:42:36;100095.56;;;10.96;97.33
10064;BME280;5071;52.360;13.134;2022-11-04T09:47:43;100089.22;;;11.01;96.74
10064;BME280;5071;52.360;13.134;2022-11-04T09:52:50;100093.72;;;10.98;96.55
10064;BME280;5071;52.360;13.134;2022-11-04T09:57:56;100119.19;;;11.06;96.42
10064;BME280;5071;52.360;13.134;2022-11-04T10:03:13;100129.34;;;11.26;94.49
10064;BME280;5071;52.360;13.134;2022-11-04T10:08:40;100132.88;;;11.25;94.16
10064;BME280;5071;52.360;13.134;2022-11-04T10:13:58;100121.38;;;11.26;93.45
10064;BME280;5071;52.360;13.134;2022-11-04T10:19:21;100119.53;;;11.28;93.91
10064;BME280;5071;52.360;13.134;2022-11-04T10:24:38;100125.50;;;11.38;93.10
10064;BME280;5071;52.360;13.134;2022-11-04T10:29:44;100126.06;;;11.51;91.96
10064;BME280;5071;52.360;13.134;2022-11-04T10:34:51;100145.88;;;11.38;92.30
10064;BME280;5071;52.360;13.134;2022-11-04T10:40:00;100144.91;;;11.06;93.73
10064;BME280;5071;52.360;13.134;2022-11-04T10:45:09;100152.75;;;11.09;93.07
10064;BME280;5071;52.360;13.134;2022-11-04T10:50:20;100157.94;;;11.15;93.33
10064;BME280;5071;52.360;13.134;2022-11-04T10:55:36;100161.19;;;11.28;92.57
10064;BME280;5071;52.360;13.134;2022-11-04T11:00:40;100158.81;;;11.16;91.95
10064;BME280;5071;52.360;13.134;2022-11-04T11:05:42;100183.06;;;11.02;92.76
10064;BME280;5071;52.360;13.134;2022-11-04T11:10:50;100196.41;;;10.99;92.74
10064;BME280;5071;52.360;13.134;2022-11-04T11:16:04;100210.72;;;10.92;93.22
10064;BME280;5071;52.360;13.134;2022-11-04T11:21:10;100219.81;;;10.81;94.50
10064;BME280;5071;52.360;13.134;2022-11-04T11:26:16;100226.84;;;10.82;95.17
10064;BME280;5071;52.360;13.134;2022-11-04T11:31:19;100234.94;;;10.78;95.75
10064;BME280;5071;52.360;13.134;2022-11-04T11:36:23;100219.84;;;10.80;95.17
10064;BME280;5071;52.360;13.134;2022-11-04T11:41:27;100208.38;;;10.78;95.45
10064;BME280;5071;52.360;13.134;2022-11-04T11:46:31;100203.88;;;10.81;94.45
10064;BME280;5071;52.360;13.134;2022-11-04T11:51:35;100198.75;;;10.72;94.43
10064;BME280;5071;52.360;13.134;2022-11-04T11:56:40;100191.78;;;10.68;93.87
10064;BME280;5071;52.360;13.134;2022-11-04T12:02:22;100196.59;;;10.89;91.78
10064;BME280;5071;52.360;13.134;2022-11-04T12:07:32;100204.78;;;10.80;92.20
10064;BME280;5071;52.360;13.134;2022-11-04T12:13:06;100191.16;;;10.96;92.12
10064;BME280;5071;52.360;13.134;2022-11-04T12:23:53;100189.69;;;10.82;92.00
10064;BME280;5071;52.360;13.134;2022-11-04T12:29:14;100194.13;;;10.82;92.20
10064;BME280;5071;52.360;13.134;2022-11-04T12:34:28;100201.22;;;10.81;92.23
10064;BME280;5071;52.360;13.134;2022-11-04T12:39:47;100200.25;;;10.85;91.97
10064;BME280;5071;52.360;13.134;2022-11-04T12:45:03;100204.75;;;10.82;91.97
10064;BME280;5071;52.360;13.134;2022-11-04T12:50:17;100204.78;;;10.79;92.15
10064;BME280;5071;52.360;13.134;2022-11-04T12:55:31;100220.19;;;10.63;93.61
10064;BME280;5071;52.360;13.134;2022-11-04T13:00:44;100229.94;;;10.62;93.18
10064;BME280;5071;52.360;13.134;2022-11-04T13:05:50;100237.16;;;10.56;93.46
10064;BME280;5071;52.360;13.134;2022-11-04T13:10:58;100238.97;;;10.54;93.95
10064;BME280;5071;52.360;13.134;2022-11-04T13:16:06;100238.97;;;10.52;94.65
10064;BME280;5071;52.360;13.134;2022-11-04T13:21:12;100240.81;;;10.50;95.17
10064;BME280;5071;52.360;13.134;2022-11-04T13:26:16;100242.66;;;10.45;96.07
10064;BME280;5071;52.360;13.134;2022-11-04T13:31:27;100243.66;;;10.39;96.68
10064;BME280;5071;52.360;13.134;2022-11-04T13:36:37;100248.06;;;10.42;96.94
10064;BME280;5071;52.360;13.134;2022-11-04T13:42:04;100251.38;;;10.52;97.30
10064;BME280;5071;52.360;13.134;2022-11-04T13:47:17;100231.81;;;10.57;97.35
10064;BME280;5071;52.360;13.134;2022-11-04T13:52:26;100236.00;;;10.67;97.14
10064;BME280;5071;52.360;13.134;2022-11-04T13:57:50;100230.63;;;10.72;96.68
10064;BME280;5071;52.360;13.134;2022-11-04T14:02:54;100227.03;;;10.73;96.63
10064;BME280;5071;52.360;13.134;2022-11-04T14:08:08;100222.75;;;10.66;96.73
10064;BME280;5071;52.360;13.134;2022-11-04T14:13:43;100227.22;;;10.65;96.39
10064;BME280;5071;52.360;13.134;2022-11-04T14:18:47;100231.00;;;10.54;96.84
10064;BME280;5071;52.360;13.134;2022-11-04T14:23:52;100238.97;;;10.52;97.72
10064;BME280;5071;52.360;13.134;2022-11-04T14:29:01;100246.91;;;10.54;97.18
10064;BME280;5071;52.360;13.134;2022-11-04T14:34:06;100247.88;;;10.51;96.92
10064;BME280;5071;52.360;13.134;2022-11-04T14:39:21;100259.56;;;10.39;97.90
10064;BME280;5071;52.360;13.134;2022-11-04T14:44:28;100274.78;;;10.29;98.78
10064;BME280;5071;52.360;13.134;2022-11-04T14:49:45;100276.63;;;10.24;98.79
10064;BME280;5071;52.360;13.134;2022-11-04T14:54:48;100283.00;;;10.16;99.16
10064;BME280;5071;52.360;13.134;2022-11-04T14:59:50;100281.34;;;10.08;99.72
10064;BME280;5071;52.360;13.134;2022-11-04T15:04:57;100281.38;;;10.07;100.00
10064;BME280;5071;52.360;13.134;2022-11-04T15:10:00;100286.78;;;10.02;100.00
10064;BME280;5071;52.360;13.134;2022-11-04T15:15:31;100277.06;;;10.00;100.00
10064;BME280;5071;52.360;13.134;2022-11-04T15:20:39;100288.66;;;9.94;100.00
10064;BME280;5071;52.360;13.134;2022-11-04T15:25:47;100294.06;;;9.89;100.00
10064;BME280;5071;52.360;13.134;2022-11-04T15:30:58;100308.28;;;9.84;100.00
10064;BME280;5071;52.360;13.134;2022-11-04T15:36:01;100318.94;;;9.79;100.00
10064;BME280;5071;52.360;13.134;2022-11-04T15:41:04;100318.09;;;9.77;100.00
10064;BME280;5071;52.360;13.134;2022-11-04T15:46:16;100313.75;;;9.71;100.00
10064;BME280;5071;52.360;13.134;2022-11-04T15:51:21;100301.47;;;9.67;100.00
10064;BME280;5071;52.360;13.134;2022-11-04T15:56:26;100299.66;;;9.69;100.00
10064;BME280;5071;52.360;13.134;2022-11-04T16:01:28;100307.66;;;9.66;100.00
10064;BME280;5071;52.360;13.134;2022-11-04T16:06:33;100320.06;;;9.64;100.00
10064;BME280;5071;52.360;13.134;2022-11-04T16:11:36;100326.28;;;9.63;100.00
10064;BME280;5071;52.360;13.134;2022-11-04T16:16:44;100320.88;;;9.69;100.00
10064;BME280;5071;52.360;13.134;2022-11-04T16:21:58;100328.00;;;9.64;100.00
10064;BME280;5071;52.360;13.134;2022-11-04T16:27:00;100336.88;;;9.63;100.00
10064;BME280;5071;52.360;13.134;2022-11-04T16:32:05;100346.56;;;9.64;100.00
10064;BME280;5071;52.360;13.134;2022-11-04T16:37:09;100350.13;;;9.63;99.56
10064;BME280;5071;52.360;13.134;2022-11-04T16:42:12;100355.47;;;9.59;99.30
10064;BME280;5071;52.360;13.134;2022-11-04T16:47:15;100354.59;;;9.58;99.02
10064;BME280;5071;52.360;13.134;2022-11-04T16:52:22;100354.59;;;9.58;98.79
10064;BME280;5071;52.360;13.134;2022-11-04T16:57:24;100369.66;;;9.56;98.84
10064;BME280;5071;52.360;13.134;2022-11-04T17:02:29;100371.31;;;9.63;98.59
10064;BME280;5071;52.360;13.134;2022-11-04T17:07:33;100370.41;;;9.64;97.56
10064;BME280;5071;52.360;13.134;2022-11-04T17:12:54;100375.72;;;9.63;97.67
10064;BME280;5071;52.360;13.134;2022-11-04T17:17:56;100372.94;;;9.73;96.32
10064;BME280;5071;52.360;13.134;2022-11-04T17:22:59;100377.50;;;9.62;96.44
10064;BME280;5071;52.360;13.134;2022-11-04T17:28:01;100380.88;;;9.73;95.78
10064;BME280;5071;52.360;13.134;2022-11-04T17:33:03;100387.28;;;9.59;96.10
10064;BME280;5071;52.360;13.134;2022-11-04T17:38:08;100389.88;;;9.63;96.38
10064;BME280;5071;52.360;13.134;2022-11-04T17:43:10;100405.78;;;9.63;96.13
10064;BME280;5071;52.360;13.134;2022-11-04T17:48:13;100408.56;;;9.52;96.24
10064;BME280;5071;52.360;13.134;2022-11-04T17:53:19;100408.41;;;9.63;96.18
10064;BME280;5071;52.360;13.134;2022-11-04T17:58:21;100407.47;;;9.69;96.19
10064;BME280;5071;52.360;13.134;2022-11-04T18:03:22;100410.25;;;9.58;95.85
10064;BME280;5071;52.360;13.134;2022-11-04T18:08:26;100411.13;;;9.57;95.46
10064;BME280;5071;52.360;13.134;2022-11-04T18:13:28;100410.31;;;9.53;95.51
10064;BME280;5071;52.360;13.134;2022-11-04T18:18:29;100412.88;;;9.61;95.74
10064;BME280;5071;52.360;13.134;2022-11-04T18:23:33;100420.66;;;9.72;95.14
10064;BME280;5071;52.360;13.134;2022-11-04T18:28:35;100432.19;;;9.68;94.84
10064;BME280;5071;52.360;13.134;2022-11-04T18:33:37;100437.50;;;9.66;94.66
10064;BME280;5071;52.360;13.134;2022-11-04T18:38:40;100433.13;;;9.65;94.51
10064;BME280;5071;52.360;13.134;2022-11-04T18:43:42;100437.56;;;9.63;94.58
10064;BME280;5071;52.360;13.134;2022-11-04T18:48:46;100437.56;;;9.63;94.47
10064;BME280;5071;52.360;13.134;2022-11-04T18:53:51;100440.84;;;9.81;93.90
10064;BME280;5071;52.360;13.134;2022-11-04T18:58:53;100447.16;;;9.72;94.08
10064;BME280;5071;52.360;13.134;2022-11-04T19:03:56;100437.31;;;9.82;94.00
10064;BME280;5071;52.360;13.134;2022-11-04T19:09:02;100446.84;;;9.95;93.62
10064;BME280;5071;52.360;13.134;2022-11-04T19:14:25;100448.59;;;9.95;93.55
10064;BME280;5071;52.360;13.134;2022-11-04T19:19:27;100458.88;;;10.19;93.29
10064;BME280;5071;52.360;13.134;2022-11-04T19:24:31;100460.72;;;10.14;91.76
10064;BME280;5071;52.360;13.134;2022-11-04T19:29:32;100459.75;;;10.18;91.67
10064;BME280;5071;52.360;13.134;2022-11-04T19:34:36;100463.38;;;10.12;91.94
10064;BME280;5071;52.360;13.134;2022-11-04T19:39:39;100457.50;;;9.90;92.07
10064;BME280;5071;52.360;13.134;2022-11-04T19:44:42;100463.97;;;9.71;93.38
10064;BME280;5071;52.360;13.134;2022-11-04T19:49:44;100459.38;;;9.85;93.38
10064;BME280;5071;52.360;13.134;2022-11-04T19:54:48;100465.28;;;10.04;93.16
10064;BME280;5071;52.360;13.134;2022-11-04T19:59:50;100461.69;;;10.08;93.19
10064;BME280;5071;52.360;13.134;2022-11-04T20:04:52;100472.00;;;10.27;91.53
10064;BME280;5071;52.360;13.134;2022-11-04T20:09:55;100481.69;;;10.28;91.11
10064;BME280;5071;52.360;13.134;2022-11-04T20:14:57;100482.63;;;10.27;91.41
10064;BME280;5071;52.360;13.134;2022-11-04T20:19:59;100483.44;;;10.32;91.42
10064;BME280;5071;52.360;13.134;2022-11-04T20:25:03;100493.06;;;10.39;91.00
10064;BME280;5071;52.360;13.134;2022-11-04T20:30:06;100500.28;;;10.28;90.67
10064;BME280;5071;52.360;13.134;2022-11-04T20:35:08;100499.47;;;10.23;90.92
10064;BME280;5071;52.360;13.134;2022-11-04T20:40:12;100499.41;;;10.26;90.91
10064;BME280;5071;52.360;13.134;2022-11-04T20:45:15;100501.31;;;10.19;91.45
10064;BME280;5071;52.360;13.134;2022-11-04T20:50:17;100504.94;;;10.14;91.85
10064;BME280;5071;52.360;13.134;2022-11-04T20:55:20;100511.00;;;10.19;91.70
10064;BME280;5071;52.360;13.134;2022-11-04T21:00:23;100517.28;;;10.15;91.94
10064;BME280;5071;52.360;13.134;2022-11-04T21:05:25;100524.44;;;10.08;92.96
10064;BME280;5071;52.360;13.134;2022-11-04T21:10:30;100527.09;;;10.08;92.60
10064;BME280;5071;52.360;13.134;2022-11-04T21:15:34;100528.84;;;10.07;92.61
10064;BME280;5071;52.360;13.134;2022-11-04T21:20:40;100524.44;;;10.08;93.39
10064;BME280;5071;52.360;13.134;2022-11-04T21:25:49;100532.34;;;10.09;92.45
10064;BME280;5071;52.360;13.134;2022-11-04T21:30:53;100530.75;;;9.99;93.21
10064;BME280;5071;52.360;13.134;2022-11-04T21:36:00;100533.50;;;9.91;93.59
10064;BME280;5071;52.360;13.134;2022-11-04T21:41:08;100539.66;;;9.95;93.47
10064;BME280;5071;52.360;13.134;2022-11-04T21:46:13;100552.06;;;9.93;93.41
10064;BME280;5071;52.360;13.134;2022-11-04T21:51:21;100546.88;;;9.81;93.82
10064;BME280;5071;52.360;13.134;2022-11-04T21:56:31;100550.31;;;9.89;93.83
10064;BME280;5071;52.360;13.134;2022-11-04T22:01:36;100557.47;;;9.84;93.99
10064;BME280;5071;52.360;13.134;2022-11-04T22:06:39;100553.06;;;9.80;94.27
10064;BME280;5071;52.360;13.134;2022-11-04T22:11:50;100563.63;;;9.86;93.85
10064;BME280;5071;52.360;13.134;2022-11-04T22:17:04;100569.91;;;9.76;94.34
10064;BME280;5071;52.360;13.134;2022-11-04T22:22:09;100572.63;;;9.72;94.44
10064;BME280;5071;52.360;13.134;2022-11-04T22:27:12;100575.19;;;9.77;94.26
10064;BME280;5071;52.360;13.134;2022-11-04T22:32:14;100576.13;;;9.76;94.00
10064;BME280;5071;52.360;13.134;2022-11-04T22:37:16;100575.28;;;9.72;94.31
10064;BME280;5071;52.360;13.134;2022-11-04T22:42:20;100579.66;;;9.75;94.13
10064;BME280;5071;52.360;13.134;2022-11-04T22:47:22;100579.72;;;9.70;94.29
10064;BME280;5071;52.360;13.134;2022-11-04T22:52:24;100581.47;;;9.70;94.09
10064;BME280;5071;52.360;13.134;2022-11-04T22:57:27;100580.56;;;9.72;94.37
10064;BME280;5071;52.360;13.134;2022-11-04T23:02:29;100585.91;;;9.66;94.04
10064;BME280;5071;52.360;13.134;2022-11-04T23:07:38;100587.78;;;9.60;94.36
10064;BME280;5071;52.360;13.134;2022-11-04T23:12:41;100592.13;;;9.64;94.32
10064;BME280;5071;52.360;13.134;2022-11-04T23:17:44;100599.25;;;9.60;94.97
10064;BME280;5071;52.360;13.134;2022-11-04T23:22:46;100607.25;;;9.56;95.21
10064;BME280;5071;52.360;13.134;2022-11-04T23:27:51;100611.63;;;9.60;96.39
10064;BME280;5071;52.360;13.134;2022-11-04T23:32:58;100618.75;;;9.53;96.92
10064;BME280;5071;52.360;13.134;2022-11-04T23:38:02;100621.47;;;9.47;97.54
10064;BME280;5071;52.360;13.134;2022-11-04T23:43:05;100622.31;;;9.49;97.72
10064;BME280;5071;52.360;13.134;2022-11-04T23:48:08;100578.41;;;9.26;98.08
10064;BME280;5071;52.360;13.134;2022-11-04T23:53:12;100623.25;;;9.45;98.24
10064;BME280;5071;52.360;13.134;2022-11-04T23:58:15;100627.69;;;9.43;98.67
